createdAt,value
2023-05-11T00:02:27.506Z,14.76
2023-05-11T00:05:00.343Z,14.73
2023-05-11T00:07:33.050Z,14.74
2023-05-11T00:10:07.854Z,14.73
2023-05-11T00:12:40.604Z,14.72
2023-05-11T00:15:13.386Z,14.72
2023-05-11T00:17:46.535Z,14.71
2023-05-11T00:20:21.525Z,14.72
2023-05-11T00:22:54.259Z,14.73
2023-05-11T00:25:28.368Z,14.72
2023-05-11T00:28:01.074Z,14.72
2023-05-11T00:30:33.790Z,14.74
2023-05-11T00:33:06.794Z,14.73
2023-05-11T00:35:39.645Z,14.72
2023-05-11T00:38:12.458Z,14.70
2023-05-11T00:40:46.639Z,14.71
2023-05-11T00:43:19.307Z,14.69
2023-05-11T00:45:52.516Z,14.69
2023-05-11T00:48:25.436Z,14.70
2023-05-11T00:50:59.651Z,14.68
2023-05-11T00:53:32.543Z,14.69
2023-05-11T00:56:07.832Z,14.68
2023-05-11T00:58:40.509Z,14.69
2023-05-11T01:01:15.022Z,14.70
2023-05-11T01:03:48.566Z,14.72
2023-05-11T01:06:29.038Z,14.74
2023-05-11T01:09:04.800Z,14.73
2023-05-11T01:11:43.893Z,14.77
2023-05-11T01:14:18.084Z,14.79
2023-05-11T01:16:56.375Z,14.79
2023-05-11T01:19:36.310Z,14.83
2023-05-11T01:22:15.104Z,14.84
2023-05-11T01:24:56.019Z,14.85
2023-05-11T01:27:41.681Z,14.89
2023-05-11T01:30:25.805Z,14.92
2023-05-11T01:33:00.821Z,14.95
2023-05-11T01:35:35.215Z,14.96
2023-05-11T01:38:12.570Z,14.98
2023-05-11T01:40:45.777Z,14.99
2023-05-11T01:43:21.957Z,15.00
2023-05-11T01:46:00.067Z,15.00
2023-05-11T01:48:35.093Z,15.01
2023-05-11T01:51:08.838Z,15.02
2023-05-11T01:53:42.255Z,15.03
2023-05-11T01:56:15.804Z,15.03
2023-05-11T01:58:49.391Z,15.03
2023-05-11T02:01:24.267Z,15.02
2023-05-11T02:03:57.495Z,15.02
2023-05-11T02:06:30.521Z,15.01
2023-05-11T02:09:04.086Z,15.02
2023-05-11T02:11:38.754Z,15.03
2023-05-11T02:14:12.717Z,15.01
2023-05-11T02:16:47.761Z,15.01
2023-05-11T02:19:21.488Z,15.01
2023-05-11T02:21:54.490Z,15.00
2023-05-11T02:24:28.523Z,14.98
2023-05-11T02:27:01.269Z,14.99
2023-05-11T02:29:34.085Z,14.97
2023-05-11T02:32:10.288Z,14.97
2023-05-11T02:34:44.215Z,14.97
2023-05-11T02:37:19.542Z,14.97
2023-05-11T02:39:54.756Z,14.96
2023-05-11T02:42:28.880Z,14.94
2023-05-11T02:45:02.666Z,14.95
2023-05-11T02:47:40.384Z,14.97
2023-05-11T02:50:13.863Z,14.96
2023-05-11T02:52:48.469Z,14.97
2023-05-11T02:55:22.450Z,14.97
2023-05-11T02:57:55.247Z,14.97
2023-05-11T03:00:28.154Z,14.98
2023-05-11T03:03:02.309Z,14.99
2023-05-11T03:05:35.369Z,14.98
2023-05-11T03:08:08.284Z,14.98
2023-05-11T03:10:41.245Z,14.99
2023-05-11T03:13:14.181Z,14.99
2023-05-11T03:15:47.491Z,14.99
2023-05-11T03:18:22.328Z,15.00
2023-05-11T03:20:55.462Z,15.01
2023-05-11T03:23:29.284Z,15.02
2023-05-11T03:26:02.722Z,15.03
2023-05-11T03:28:36.809Z,15.03
2023-05-11T03:31:09.857Z,15.04
2023-05-11T03:33:44.065Z,15.04
2023-05-11T03:36:17.074Z,15.03
2023-05-11T03:38:49.894Z,15.03
2023-05-11T03:41:22.813Z,15.05
2023-05-11T03:43:57.468Z,15.06
2023-05-11T03:46:30.972Z,15.05
2023-05-11T03:49:05.953Z,15.05
2023-05-11T03:51:39.330Z,15.05
2023-05-11T03:54:12.181Z,15.08
2023-05-11T03:56:44.913Z,15.08
2023-05-11T03:59:17.786Z,15.08
2023-05-11T04:01:53.195Z,15.08
2023-05-11T04:04:31.108Z,15.06
2023-05-11T04:07:03.986Z,15.06
2023-05-11T04:09:36.688Z,15.06
2023-05-11T04:12:09.658Z,15.05
2023-05-11T04:14:42.345Z,15.05
2023-05-11T04:17:15.008Z,15.04
2023-05-11T04:19:49.048Z,15.02
2023-05-11T04:22:21.702Z,15.03
2023-05-11T04:24:54.362Z,15.03
2023-05-11T04:27:27.019Z,15.04
2023-05-11T04:29:59.722Z,15.04
2023-05-11T04:32:32.544Z,15.05
2023-05-11T04:35:07.051Z,15.05
2023-05-11T04:37:40.054Z,15.05
2023-05-11T04:40:13.178Z,15.06
2023-05-11T04:42:46.170Z,15.06
2023-05-11T04:45:18.900Z,15.06
2023-05-11T04:47:51.718Z,15.09
2023-05-11T04:50:25.921Z,15.10
2023-05-11T04:52:58.624Z,15.12
2023-05-11T04:55:31.705Z,15.14
2023-05-11T04:58:04.491Z,15.16
2023-05-11T05:00:37.600Z,15.19
2023-05-11T05:03:10.348Z,15.22
2023-05-11T05:05:44.452Z,15.24
2023-05-11T05:08:17.746Z,15.27
2023-05-11T05:10:50.472Z,15.30
2023-05-11T05:13:23.184Z,15.32
2023-05-11T05:15:55.815Z,15.35
2023-05-11T05:18:28.566Z,15.39
2023-05-11T05:21:03.150Z,15.42
2023-05-11T05:23:35.826Z,15.47
2023-05-11T05:26:08.485Z,15.50
2023-05-11T05:28:41.226Z,15.54
2023-05-11T05:31:13.988Z,15.57
2023-05-11T05:33:46.743Z,15.60
2023-05-11T05:36:20.770Z,15.66
2023-05-11T05:38:53.622Z,15.68
2023-05-11T05:41:27.801Z,15.74
2023-05-11T05:44:00.818Z,15.78
2023-05-11T05:46:33.816Z,15.83
2023-05-11T05:49:06.904Z,15.88
2023-05-11T05:51:41.056Z,15.92
2023-05-11T05:54:14.192Z,15.97
2023-05-11T05:56:47.657Z,16.03
2023-05-11T05:59:23.526Z,16.10
2023-05-11T06:01:56.291Z,16.15
2023-05-11T06:04:29.136Z,16.23
2023-05-11T06:07:03.366Z,16.32
2023-05-11T06:09:39.048Z,16.40
2023-05-11T06:12:11.884Z,16.49
2023-05-11T06:14:44.820Z,16.57
2023-05-11T06:17:17.669Z,16.68
2023-05-11T06:19:50.559Z,16.76
2023-05-11T06:22:25.011Z,16.85
2023-05-11T06:24:58.254Z,16.95
2023-05-11T06:27:31.006Z,17.06
2023-05-11T06:30:03.745Z,17.16
2023-05-11T06:32:36.458Z,17.25
2023-05-11T06:35:09.742Z,17.34
2023-05-11T06:37:43.834Z,17.45
2023-05-11T06:40:16.898Z,17.54
2023-05-11T06:42:49.781Z,17.61
2023-05-11T06:45:22.583Z,17.67
2023-05-11T06:47:55.369Z,17.73
2023-05-11T06:50:28.347Z,17.76
2023-05-11T06:53:02.499Z,17.80
2023-05-11T06:55:35.459Z,17.82
2023-05-11T06:58:08.272Z,17.89
2023-05-11T07:00:40.933Z,17.96
2023-05-11T07:03:13.704Z,18.06
2023-05-11T07:05:46.449Z,18.16
2023-05-11T07:08:20.598Z,18.27
2023-05-11T07:10:53.397Z,18.38
2023-05-11T07:13:26.068Z,18.50
2023-05-11T07:15:58.748Z,18.62
2023-05-11T07:18:31.741Z,18.74
2023-05-11T07:21:04.777Z,18.87
2023-05-11T07:23:38.793Z,18.99
2023-05-11T07:26:11.660Z,19.10
2023-05-11T07:28:44.372Z,19.19
2023-05-11T07:31:17.118Z,19.31
2023-05-11T07:33:49.910Z,19.39
2023-05-11T07:36:22.617Z,19.45
2023-05-11T07:38:57.850Z,19.53
2023-05-11T07:41:30.984Z,19.55
2023-05-11T07:44:03.678Z,19.57
2023-05-11T07:46:36.507Z,19.61
2023-05-11T07:49:17.055Z,19.64
2023-05-11T07:51:53.745Z,19.71
2023-05-11T07:54:28.264Z,19.77
2023-05-11T07:57:00.969Z,19.82
2023-05-11T07:59:33.682Z,19.90
2023-05-11T08:02:06.784Z,20.00
2023-05-11T08:04:39.542Z,20.09
2023-05-11T08:07:12.278Z,20.18
2023-05-11T08:09:46.484Z,20.26
2023-05-11T08:12:19.156Z,20.37
2023-05-11T08:14:51.783Z,20.45
2023-05-11T08:17:24.437Z,20.50
2023-05-11T08:19:57.412Z,20.57
2023-05-11T08:22:30.253Z,20.64
2023-05-11T08:25:05.640Z,20.73
2023-05-11T08:27:38.567Z,20.81
2023-05-11T08:30:12.167Z,20.91
2023-05-11T08:35:21.719Z,21.15
2023-05-11T08:37:54.787Z,21.25
2023-05-11T08:40:29.050Z,21.36
2023-05-11T08:43:02.475Z,21.46
2023-05-11T08:45:38.654Z,21.56
2023-05-11T08:48:12.597Z,21.62
2023-05-11T08:50:46.062Z,21.66
2023-05-11T08:53:18.797Z,21.66
2023-05-11T08:55:53.247Z,21.66
2023-05-11T08:58:25.992Z,21.63
2023-05-11T09:00:58.949Z,21.57
2023-05-11T09:03:31.929Z,21.52
2023-05-11T09:06:07.199Z,21.46
2023-05-11T09:08:40.876Z,21.42
2023-05-11T09:11:15.084Z,21.38
2023-05-11T09:13:48.054Z,21.37
2023-05-11T09:16:35.680Z,21.39
2023-05-11T09:19:14.824Z,21.44
2023-05-11T09:21:48.195Z,21.49
2023-05-11T09:24:21.475Z,21.57
2023-05-11T09:27:09.295Z,21.63
2023-05-11T09:29:41.968Z,21.70
2023-05-11T09:32:15.432Z,21.77
2023-05-11T09:34:48.473Z,21.83
2023-05-11T09:37:21.141Z,21.92
2023-05-11T09:40:25.107Z,22.04
2023-05-11T09:42:49.680Z,22.19
2023-05-11T09:45:41.012Z,22.34
2023-05-11T09:48:26.177Z,22.48
2023-05-11T09:51:03.753Z,22.66
2023-05-11T09:53:43.471Z,22.83
2023-05-11T09:56:16.705Z,23.01
2023-05-11T09:58:51.704Z,23.18
2023-05-11T10:01:32.454Z,23.38
2023-05-11T10:04:22.206Z,23.55
2023-05-11T10:06:56.577Z,23.69
2023-05-11T10:09:29.224Z,23.78
2023-05-11T10:12:02.672Z,23.81
2023-05-11T10:14:37.048Z,23.82
2023-05-11T10:17:11.976Z,23.73
2023-05-11T10:19:44.766Z,23.64
2023-05-11T10:22:17.788Z,23.50
2023-05-11T10:24:51.275Z,23.36
2023-05-11T10:27:24.015Z,23.14
2023-05-11T10:29:59.390Z,22.91
2023-05-11T10:32:32.969Z,22.64
2023-05-11T10:35:06.469Z,22.37
2023-05-11T10:37:40.033Z,22.06
2023-05-11T10:40:12.867Z,21.73
2023-05-11T10:43:05.843Z,21.37
2023-05-11T10:45:47.828Z,20.90
2023-05-11T10:48:35.738Z,20.47
2023-05-11T10:51:27.099Z,19.95
2023-05-11T10:54:08.300Z,19.43
2023-05-11T10:57:07.381Z,19.00
2023-05-11T11:00:09.756Z,18.55
2023-05-11T11:02:45.534Z,18.19
2023-05-11T11:05:33.512Z,17.94
2023-05-11T11:08:08.973Z,17.73
2023-05-11T11:10:44.049Z,17.55
2023-05-11T11:13:18.472Z,17.42
2023-05-11T11:16:09.953Z,17.31
2023-05-11T11:18:44.063Z,17.21
2023-05-11T11:21:37.261Z,17.16
2023-05-11T11:24:10.332Z,17.10
2023-05-11T11:26:50.580Z,17.04
2023-05-11T11:29:23.476Z,16.99
2023-05-11T11:31:56.242Z,16.94
2023-05-11T11:34:39.913Z,16.91
2023-05-11T11:37:13.623Z,16.88
2023-05-11T11:39:50.015Z,16.86
2023-05-11T11:42:34.956Z,16.85
2023-05-11T11:45:35.265Z,16.86
2023-05-11T11:48:15.601Z,16.86
2023-05-11T11:50:50.725Z,16.88
2023-05-11T11:53:44.247Z,16.88
2023-05-11T11:56:35.548Z,16.90
2023-05-11T11:59:12.050Z,16.90
2023-05-11T12:01:46.165Z,16.92
2023-05-11T12:04:25.222Z,16.95
2023-05-11T12:06:59.870Z,16.97
2023-05-11T12:09:32.740Z,17.01
2023-05-11T12:12:06.785Z,17.04
2023-05-11T12:14:40.867Z,17.08
2023-05-11T12:17:16.580Z,17.09
2023-05-11T12:19:49.270Z,17.12
2023-05-11T12:22:27.049Z,17.15
2023-05-11T12:25:00.617Z,17.18
2023-05-11T12:27:33.443Z,17.21
2023-05-11T12:30:06.654Z,17.26
2023-05-11T12:32:40.584Z,17.33
2023-05-11T12:35:13.404Z,17.40
2023-05-11T12:37:47.638Z,17.47
2023-05-11T12:40:20.600Z,17.57
2023-05-11T12:42:53.585Z,17.65
2023-05-11T12:45:26.936Z,17.76
2023-05-11T12:47:59.922Z,17.86
2023-05-11T12:50:32.614Z,18.01
2023-05-11T12:53:15.849Z,18.15
2023-05-11T12:55:58.612Z,18.29
2023-05-11T12:58:37.036Z,18.43
2023-05-11T13:01:10.187Z,18.57
2023-05-11T13:03:47.498Z,18.72
2023-05-11T13:06:21.680Z,18.86
2023-05-11T13:08:55.857Z,19.01
2023-05-11T13:11:28.902Z,19.15
2023-05-11T13:14:16.416Z,19.29
2023-05-11T13:16:54.643Z,19.42
2023-05-11T13:19:31.247Z,19.55
2023-05-11T13:22:04.440Z,19.69
2023-05-11T13:24:38.571Z,19.83
2023-05-11T13:27:11.278Z,19.96
2023-05-11T13:29:44.099Z,20.10
2023-05-11T13:32:16.909Z,20.21
2023-05-11T13:34:49.787Z,20.32
2023-05-11T13:37:22.467Z,20.44
2023-05-11T13:39:56.582Z,20.52
2023-05-11T13:42:29.789Z,20.62
2023-05-11T13:45:02.448Z,20.73
2023-05-11T13:47:35.994Z,20.83
2023-05-11T13:50:09.414Z,20.91
2023-05-11T13:52:42.358Z,21.00
2023-05-11T13:55:16.796Z,21.06
2023-05-11T13:57:49.786Z,21.15
2023-05-11T14:00:22.759Z,21.20
2023-05-11T14:02:56.268Z,21.26
2023-05-11T14:05:29.467Z,21.30
2023-05-11T14:08:02.191Z,21.32
2023-05-11T14:10:37.913Z,21.35
2023-05-11T14:13:10.681Z,21.39
2023-05-11T14:15:43.341Z,21.45
2023-05-11T14:18:16.120Z,21.49
2023-05-11T14:20:49.346Z,21.55
2023-05-11T14:23:22.015Z,21.62
2023-05-11T14:25:56.844Z,21.68
2023-05-11T14:28:29.565Z,21.73
2023-05-11T14:31:02.831Z,21.79
2023-05-11T14:33:35.787Z,21.81
2023-05-11T14:36:09.138Z,21.83
2023-05-11T14:38:42.066Z,21.84
2023-05-11T14:41:16.381Z,21.83
2023-05-11T14:43:49.578Z,21.79
2023-05-11T14:46:23.427Z,21.77
2023-05-11T14:48:57.794Z,21.74
2023-05-11T14:51:30.468Z,21.69
2023-05-11T14:54:03.164Z,21.66
2023-05-11T14:56:37.655Z,21.62
2023-05-11T14:59:10.341Z,21.59
2023-05-11T15:01:43.376Z,21.54
2023-05-11T15:04:16.419Z,21.49
2023-05-11T15:06:49.647Z,21.42
2023-05-11T15:09:24.003Z,21.34
2023-05-11T15:11:59.902Z,21.18
2023-05-11T15:14:32.546Z,20.96
2023-05-11T15:17:05.378Z,20.62
2023-05-11T15:19:38.076Z,20.22
2023-05-11T15:22:11.129Z,19.79
2023-05-11T15:24:43.780Z,19.33
2023-05-11T15:27:17.940Z,18.89
2023-05-11T15:29:50.826Z,18.49
2023-05-11T15:32:23.588Z,18.11
2023-05-11T15:34:59.818Z,17.80
2023-05-11T15:37:33.273Z,17.50
2023-05-11T15:40:06.595Z,17.20
2023-05-11T15:42:41.122Z,16.98
2023-05-11T15:45:13.884Z,16.79
2023-05-11T15:47:46.853Z,16.62
2023-05-11T15:50:20.067Z,16.49
2023-05-11T15:52:54.478Z,16.41
2023-05-11T15:55:27.157Z,16.34
2023-05-11T15:58:01.334Z,16.32
2023-05-11T16:00:34.122Z,16.30
2023-05-11T16:03:07.963Z,16.31
2023-05-11T16:05:40.765Z,16.33
2023-05-11T16:08:13.572Z,16.35
2023-05-11T16:10:46.357Z,16.41
2023-05-11T16:13:20.405Z,16.44
2023-05-11T16:15:53.269Z,16.50
2023-05-11T16:18:26.094Z,16.53
2023-05-11T16:20:58.920Z,16.57
2023-05-11T16:23:31.634Z,16.61
2023-05-11T16:26:04.372Z,16.65
2023-05-11T16:28:38.676Z,16.71
2023-05-11T16:31:11.425Z,16.77
2023-05-11T16:33:44.546Z,16.84
2023-05-11T16:36:17.641Z,16.92
2023-05-11T16:38:50.518Z,16.99
2023-05-11T16:41:25.148Z,17.10
2023-05-11T16:43:59.322Z,17.19
2023-05-11T16:46:32.388Z,17.28
2023-05-11T16:49:05.166Z,17.35
2023-05-11T16:51:37.886Z,17.44
2023-05-11T16:54:11.652Z,17.47
2023-05-11T16:56:44.424Z,17.52
2023-05-11T16:59:18.607Z,17.54
2023-05-11T17:01:51.443Z,17.56
2023-05-11T17:04:24.137Z,17.58
2023-05-11T17:06:57.265Z,17.58
2023-05-11T17:09:30.126Z,17.56
2023-05-11T17:12:08.729Z,17.56
2023-05-11T17:14:42.879Z,17.54
2023-05-11T17:17:15.515Z,17.52
2023-05-11T17:19:48.463Z,17.48
2023-05-11T17:22:21.362Z,17.45
2023-05-11T17:24:54.068Z,17.44
2023-05-11T17:27:26.736Z,17.39
2023-05-11T17:30:01.102Z,17.33
2023-05-11T17:32:34.324Z,17.30
2023-05-11T17:35:08.107Z,17.27
2023-05-11T17:37:40.824Z,17.24
2023-05-11T17:40:14.041Z,17.22
2023-05-11T17:42:47.070Z,17.19
2023-05-11T17:45:21.572Z,17.18
2023-05-11T17:47:54.923Z,17.14
2023-05-11T17:50:27.972Z,17.13
2023-05-11T17:53:00.649Z,17.10
2023-05-11T17:55:33.739Z,17.07
2023-05-11T17:58:06.517Z,17.05
2023-05-11T18:00:41.118Z,17.04
2023-05-11T18:03:14.175Z,17.00
2023-05-11T18:05:48.877Z,16.96
2023-05-11T18:08:22.136Z,16.92
2023-05-11T18:10:55.116Z,16.92
2023-05-11T18:13:28.796Z,16.86
2023-05-11T18:16:03.031Z,16.86
2023-05-11T18:18:36.164Z,16.81
2023-05-11T18:21:10.778Z,16.81
2023-05-11T18:23:43.445Z,16.76
2023-05-11T18:26:17.446Z,16.72
2023-05-11T18:28:50.225Z,16.67
2023-05-11T18:31:24.790Z,16.65
2023-05-11T18:33:57.757Z,16.60
2023-05-11T18:36:30.857Z,16.57
2023-05-11T18:39:04.826Z,16.51
2023-05-11T18:41:37.538Z,16.44
2023-05-11T18:44:10.204Z,16.38
2023-05-11T18:46:44.735Z,16.32
2023-05-11T18:49:17.594Z,16.28
2023-05-11T18:51:50.448Z,16.22
2023-05-11T18:54:23.139Z,16.18
2023-05-11T18:56:56.132Z,16.11
2023-05-11T18:59:28.842Z,16.08
2023-05-11T19:02:03.480Z,16.04
2023-05-11T19:04:36.217Z,15.98
2023-05-11T19:07:08.923Z,15.95
2023-05-11T19:09:41.733Z,15.91
2023-05-11T19:12:14.622Z,15.87
2023-05-11T19:14:47.591Z,15.85
2023-05-11T19:17:21.845Z,15.80
2023-05-11T19:19:56.386Z,15.77
2023-05-11T19:22:29.110Z,15.74
2023-05-11T19:25:02.129Z,15.68
2023-05-11T19:27:36.859Z,15.66
2023-05-11T19:30:10.371Z,15.61
2023-05-11T19:32:44.872Z,15.57
2023-05-11T19:35:18.368Z,15.53
2023-05-11T19:37:51.089Z,15.49
2023-05-11T19:43:01.068Z,15.39
2023-05-11T19:45:34.097Z,15.35
2023-05-11T19:48:08.829Z,15.34
2023-05-11T19:50:41.634Z,15.32
2023-05-11T19:53:14.346Z,15.28
2023-05-11T19:55:48.258Z,15.26
2023-05-11T19:58:21.320Z,15.22
2023-05-11T20:00:54.910Z,15.21
2023-05-11T20:03:29.371Z,15.18
2023-05-11T20:06:02.499Z,15.16
2023-05-11T20:08:35.176Z,15.16
2023-05-11T20:11:08.002Z,15.14
2023-05-11T20:13:41.187Z,15.14
2023-05-11T20:16:13.898Z,15.15
2023-05-11T20:18:48.291Z,15.15
2023-05-11T20:21:21.090Z,15.15
2023-05-11T20:23:53.840Z,15.16
2023-05-11T20:26:26.846Z,15.15
2023-05-11T20:28:59.587Z,15.17
2023-05-11T20:31:32.829Z,15.16
2023-05-11T20:34:07.357Z,15.15
2023-05-11T20:36:40.395Z,15.16
2023-05-11T20:39:13.189Z,15.16
2023-05-11T20:41:45.864Z,15.17
2023-05-11T20:44:18.870Z,15.18
2023-05-11T20:46:51.573Z,15.18
2023-05-11T20:49:38.387Z,15.18
2023-05-11T20:52:11.846Z,15.18
2023-05-11T20:54:44.900Z,15.19
2023-05-11T20:57:17.669Z,15.18
2023-05-11T21:02:26.362Z,15.20
2023-05-11T21:05:02.423Z,15.20
2023-05-11T21:07:35.414Z,15.19
2023-05-11T21:10:08.810Z,15.19
2023-05-11T21:12:41.529Z,15.20
2023-05-11T21:15:14.238Z,15.20
2023-05-11T21:17:46.924Z,15.21
2023-05-11T21:20:21.185Z,15.20
2023-05-11T21:22:53.949Z,15.22
2023-05-11T21:25:26.702Z,15.22
2023-05-11T21:28:00.892Z,15.22
2023-05-11T21:30:33.831Z,15.23
2023-05-11T21:33:06.973Z,15.22
2023-05-11T21:35:41.232Z,15.24
2023-05-11T21:38:15.310Z,15.25
2023-05-11T21:40:51.408Z,15.25
2023-05-11T21:43:24.269Z,15.27
2023-05-11T21:45:57.087Z,15.27
2023-05-11T21:48:30.117Z,15.27
2023-05-11T21:51:04.165Z,15.29
2023-05-11T21:53:37.310Z,15.29
2023-05-11T21:56:10.393Z,15.29
2023-05-11T21:58:43.115Z,15.30
2023-05-11T22:01:15.876Z,15.33
2023-05-11T22:03:48.681Z,15.34
2023-05-11T22:06:22.962Z,15.35
2023-05-11T22:08:55.638Z,15.37
2023-05-11T22:11:28.287Z,15.38
2023-05-11T22:14:00.896Z,15.39
2023-05-11T22:16:33.672Z,15.41
2023-05-11T22:19:06.930Z,15.42
2023-05-11T22:21:41.392Z,15.44
2023-05-11T22:24:14.503Z,15.45
2023-05-11T22:26:47.324Z,15.47
2023-05-11T22:29:20.042Z,15.47
2023-05-11T22:31:52.789Z,15.49
2023-05-11T22:34:25.539Z,15.49
2023-05-11T22:37:00.251Z,15.51
2023-05-11T22:39:33.258Z,15.51
2023-05-11T22:42:06.187Z,15.52
2023-05-11T22:44:38.862Z,15.54
2023-05-11T22:47:12.200Z,15.55
2023-05-11T22:49:45.025Z,15.57
2023-05-11T22:52:19.191Z,15.58
2023-05-11T22:54:54.592Z,15.58
2023-05-11T22:57:27.840Z,15.58
2023-05-11T23:00:00.506Z,15.60
2023-05-11T23:02:36.094Z,15.60
2023-05-11T23:05:09.427Z,15.60
2023-05-11T23:07:43.541Z,15.60
2023-05-11T23:10:16.927Z,15.61
2023-05-11T23:12:49.847Z,15.61
2023-05-11T23:15:22.539Z,15.59
2023-05-11T23:17:55.341Z,15.59
2023-05-11T23:20:28.372Z,15.60
2023-05-11T23:23:02.722Z,15.58
2023-05-11T23:25:35.413Z,15.56
2023-05-11T23:28:11.547Z,15.57
2023-05-11T23:30:46.044Z,15.56
2023-05-11T23:33:18.959Z,15.56
2023-05-11T23:35:51.730Z,15.53
2023-05-11T23:38:27.827Z,15.53
2023-05-11T23:41:00.687Z,15.52
2023-05-11T23:43:33.520Z,15.50
2023-05-11T23:46:06.269Z,15.50
2023-05-11T23:48:39.030Z,15.48
2023-05-11T23:51:12.033Z,15.48
2023-05-11T23:53:46.677Z,15.47
2023-05-11T23:56:19.408Z,15.48
2023-05-11T23:58:52.249Z,15.46
